createdAt,value
2017-04-10T00:00:15.645Z,14.2
2017-04-10T00:00:56.183Z,14.27
2017-04-10T00:01:36.688Z,14.28
2017-04-10T00:02:17.313Z,14.21
2017-04-10T00:02:57.843Z,14.29
2017-04-10T00:03:38.345Z,14.32
2017-04-10T00:04:18.822Z,14.25
2017-04-10T00:04:59.316Z,14.22
2017-04-10T00:05:39.813Z,14.29
2017-04-10T00:06:20.309Z,14.27
2017-04-10T00:07:00.806Z,14.28
2017-04-10T00:07:41.324Z,14.18
2017-04-10T00:08:21.856Z,14.18
2017-04-10T00:09:02.336Z,14.18
2017-04-10T00:09:42.830Z,14.17
2017-04-10T00:10:23.356Z,14.18
2017-04-10T00:11:03.860Z,14.17
2017-04-10T00:11:44.359Z,14.18
2017-04-10T00:12:24.851Z,14.18
2017-04-10T00:13:05.355Z,14.06
2017-04-10T00:13:45.853Z,14.12
2017-04-10T00:14:26.376Z,14.06
2017-04-10T00:15:06.890Z,14.02
2017-04-10T00:15:47.428Z,14.09
2017-04-10T00:16:27.920Z,14.09
2017-04-10T00:17:08.385Z,14.09
2017-04-10T00:17:48.876Z,14.04
2017-04-10T00:18:29.371Z,14.04
2017-04-10T00:19:09.885Z,14.07
2017-04-10T00:19:50.375Z,14.1
2017-04-10T00:20:30.848Z,13.97
2017-04-10T00:21:11.355Z,14.03
2017-04-10T00:21:51.837Z,14.09
2017-04-10T00:22:32.345Z,13.95
2017-04-10T00:23:12.832Z,13.96
2017-04-10T00:23:53.352Z,14.02
2017-04-10T00:24:33.845Z,13.96
2017-04-10T00:25:14.379Z,14.09
2017-04-10T00:25:54.884Z,14.06
2017-04-10T00:26:35.326Z,14.1
2017-04-10T00:27:15.859Z,14.07
2017-04-10T00:27:56.326Z,14.15
2017-04-10T00:28:36.829Z,14.1
2017-04-10T00:29:17.342Z,14.03
2017-04-10T00:29:57.843Z,14
2017-04-10T00:30:38.330Z,14.04
2017-04-10T00:31:18.848Z,14.03
2017-04-10T00:31:59.320Z,14.04
2017-04-10T00:32:39.828Z,14.03
2017-04-10T00:33:20.347Z,13.97
2017-04-10T00:34:00.862Z,13.96
2017-04-10T00:34:41.364Z,13.97
2017-04-10T00:35:21.858Z,13.97
2017-04-10T00:36:02.364Z,13.85
2017-04-10T00:36:42.884Z,13.92
2017-04-10T00:37:23.366Z,13.87
2017-04-10T00:38:03.868Z,13.84
2017-04-10T00:38:44.402Z,13.95
2017-04-10T00:39:24.921Z,13.91
2017-04-10T00:40:05.446Z,13.95
2017-04-10T00:40:45.911Z,13.87
2017-04-10T00:41:26.409Z,13.88
2017-04-10T00:42:06.900Z,13.85
2017-04-10T00:42:47.394Z,13.78
2017-04-10T00:43:27.907Z,13.88
2017-04-10T00:44:08.415Z,13.75
2017-04-10T00:44:48.895Z,13.79
2017-04-10T00:45:29.397Z,13.82
2017-04-10T00:46:09.892Z,13.78
2017-04-10T00:46:50.390Z,13.75
2017-04-10T00:47:30.920Z,13.75
2017-04-10T00:48:11.401Z,13.77
2017-04-10T00:48:51.922Z,13.64
2017-04-10T00:49:32.426Z,13.71
2017-04-10T00:50:12.921Z,13.77
2017-04-10T00:50:53.482Z,13.69
2017-04-10T00:51:33.931Z,13.81
2017-04-10T00:52:14.467Z,13.73
2017-04-10T00:52:54.929Z,13.75
2017-04-10T00:53:35.424Z,13.63
2017-04-10T00:54:15.945Z,13.64
2017-04-10T00:54:56.409Z,13.66
2017-04-10T00:55:36.890Z,13.69
2017-04-10T00:56:17.359Z,13.73
2017-04-10T00:56:57.872Z,13.69
2017-04-10T00:57:38.393Z,13.64
2017-04-10T00:58:18.920Z,13.63
2017-04-10T00:58:59.446Z,13.77
2017-04-10T00:59:39.904Z,13.78
2017-04-10T01:00:20.401Z,13.71
2017-04-10T01:01:00.907Z,13.78
2017-04-10T01:01:41.394Z,13.71
2017-04-10T01:02:21.890Z,13.75
2017-04-10T01:03:02.390Z,13.78
2017-04-10T01:03:42.892Z,13.75
2017-04-10T01:04:23.402Z,13.66
2017-04-10T01:05:03.866Z,13.66
2017-04-10T01:05:44.358Z,13.67
2017-04-10T01:06:24.852Z,13.63
2017-04-10T01:07:05.386Z,13.66
2017-04-10T01:07:45.837Z,13.67
2017-04-10T01:08:26.341Z,13.62
2017-04-10T01:09:06.830Z,13.62
2017-04-10T01:09:47.314Z,13.62
2017-04-10T01:10:27.810Z,13.62
2017-04-10T01:11:08.320Z,13.59
2017-04-10T01:11:48.803Z,13.64
2017-04-10T01:12:29.302Z,13.6
2017-04-10T01:13:09.812Z,13.71
2017-04-10T01:13:50.306Z,13.6
2017-04-10T01:14:30.791Z,13.63
2017-04-10T01:15:11.325Z,13.6
2017-04-10T01:15:51.806Z,13.69
2017-04-10T01:16:32.301Z,13.67
2017-04-10T01:17:12.813Z,13.6
2017-04-10T01:17:53.295Z,13.6
2017-04-10T01:18:33.780Z,13.6
2017-04-10T01:19:14.261Z,13.63
2017-04-10T01:19:54.787Z,13.6
2017-04-10T01:20:35.286Z,13.63
2017-04-10T01:21:15.789Z,13.63
2017-04-10T01:21:56.279Z,13.64
2017-04-10T01:22:36.818Z,13.69
2017-04-10T01:23:17.310Z,13.6
2017-04-10T01:23:57.797Z,13.59
2017-04-10T01:24:38.324Z,13.6
2017-04-10T01:25:18.769Z,13.59
2017-04-10T01:25:59.269Z,13.64
2017-04-10T01:26:39.789Z,13.62
2017-04-10T01:27:20.279Z,13.55
2017-04-10T01:28:00.799Z,13.54
2017-04-10T01:28:41.311Z,13.55
2017-04-10T01:29:21.844Z,13.57
2017-04-10T01:30:02.305Z,13.62
2017-04-10T01:30:42.807Z,13.59
2017-04-10T01:31:23.303Z,13.54
2017-04-10T01:32:03.793Z,13.6
2017-04-10T01:32:44.329Z,13.57
2017-04-10T01:33:24.780Z,13.6
2017-04-10T01:34:05.299Z,13.59
2017-04-10T01:34:45.784Z,13.59
2017-04-10T01:35:26.295Z,13.51
2017-04-10T01:36:06.801Z,13.57
2017-04-10T01:36:47.306Z,13.57
2017-04-10T01:37:27.836Z,13.52
2017-04-10T01:38:08.293Z,13.55
2017-04-10T01:38:48.794Z,13.42
2017-04-10T01:39:29.300Z,13.44
2017-04-10T01:40:09.787Z,13.41
2017-04-10T01:40:50.324Z,13.33
2017-04-10T01:41:30.838Z,13.33
2017-04-10T01:42:11.323Z,13.33
2017-04-10T01:42:51.752Z,13.39
2017-04-10T01:43:32.299Z,13.42
2017-04-10T01:44:12.813Z,13.46
2017-04-10T01:44:53.317Z,13.44
2017-04-10T01:45:33.800Z,13.45
2017-04-10T01:46:14.325Z,13.36
2017-04-10T01:46:54.788Z,13.36
2017-04-10T01:47:35.289Z,13.32
2017-04-10T01:48:15.779Z,13.38
2017-04-10T01:48:56.282Z,13.42
2017-04-10T01:49:36.782Z,13.33
2017-04-10T01:50:17.330Z,13.3
2017-04-10T01:50:57.765Z,13.36
2017-04-10T01:51:38.272Z,13.33
2017-04-10T01:52:18.757Z,13.38
2017-04-10T01:52:59.262Z,13.41
2017-04-10T01:53:39.860Z,13.41
2017-04-10T01:54:20.327Z,13.46
2017-04-10T01:55:00.811Z,13.46
2017-04-10T01:55:41.314Z,13.45
2017-04-10T01:56:21.800Z,13.48
2017-04-10T01:57:02.302Z,13.54
2017-04-10T01:57:42.804Z,13.54
2017-04-10T01:58:23.271Z,13.51
2017-04-10T01:59:03.783Z,13.57
2017-04-10T01:59:44.287Z,13.45
2017-04-10T02:00:24.788Z,13.42
2017-04-10T02:01:05.239Z,13.42
2017-04-10T02:01:45.752Z,13.38
2017-04-10T02:02:26.227Z,13.42
2017-04-10T02:03:06.712Z,13.32
2017-04-10T02:03:47.221Z,13.28
2017-04-10T02:04:27.761Z,13.28
2017-04-10T02:05:08.256Z,13.19
2017-04-10T02:05:48.726Z,13.19
2017-04-10T02:06:29.215Z,13.23
2017-04-10T02:07:09.727Z,13.17
2017-04-10T02:07:50.236Z,13.15
2017-04-10T02:08:30.740Z,13.07
2017-04-10T02:09:11.234Z,13.12
2017-04-10T02:09:51.719Z,13.11
2017-04-10T02:10:32.234Z,13.14
2017-04-10T02:11:12.733Z,13.08
2017-04-10T02:11:53.243Z,13.11
2017-04-10T02:12:33.737Z,13.08
2017-04-10T02:13:14.205Z,13.08
2017-04-10T02:13:54.701Z,13.08
2017-04-10T02:14:35.210Z,13.08
2017-04-10T02:15:15.711Z,13.11
2017-04-10T02:15:56.231Z,13.05
2017-04-10T02:16:36.717Z,12.96
2017-04-10T02:17:17.240Z,12.96
2017-04-10T02:17:57.734Z,12.96
2017-04-10T02:18:38.260Z,12.96
2017-04-10T02:19:18.735Z,13.03
2017-04-10T02:19:59.258Z,12.96
2017-04-10T02:20:39.770Z,13.01
2017-04-10T02:21:20.268Z,12.96
2017-04-10T02:22:00.754Z,13.01
2017-04-10T02:22:41.248Z,13
2017-04-10T02:23:21.765Z,13.07
2017-04-10T02:24:02.265Z,12.96
2017-04-10T02:24:42.763Z,13.1
2017-04-10T02:25:23.262Z,13.1
2017-04-10T02:26:03.766Z,13.08
2017-04-10T02:26:44.276Z,13.1
2017-04-10T02:27:24.723Z,13.08
2017-04-10T02:28:05.244Z,13.08
2017-04-10T02:28:45.716Z,13.03
2017-04-10T02:29:26.219Z,12.95
2017-04-10T02:30:06.749Z,13.05
2017-04-10T02:30:47.247Z,12.95
2017-04-10T02:31:27.776Z,13
2017-04-10T02:32:08.266Z,13.04
2017-04-10T02:32:48.746Z,13.07
2017-04-10T02:33:29.243Z,13.08
2017-04-10T02:34:09.777Z,13.11
2017-04-10T02:34:50.287Z,13.12
2017-04-10T02:35:30.805Z,13.04
2017-04-10T02:36:11.314Z,13.08
2017-04-10T02:36:51.765Z,13.01
2017-04-10T02:37:32.294Z,13.17
2017-04-10T02:38:12.781Z,13.08
2017-04-10T02:38:53.281Z,13.03
2017-04-10T02:39:33.809Z,13.05
2017-04-10T02:40:14.290Z,13
2017-04-10T02:40:54.786Z,13.05
2017-04-10T02:41:35.315Z,13.01
2017-04-10T02:42:15.792Z,12.97
2017-04-10T02:42:56.269Z,13.07
2017-04-10T02:43:36.768Z,13.1
2017-04-10T02:44:17.275Z,12.97
2017-04-10T02:44:57.742Z,13.1
2017-04-10T02:45:38.251Z,13.01
2017-04-10T02:46:18.755Z,12.96
2017-04-10T02:46:59.240Z,12.97
2017-04-10T02:47:39.738Z,12.92
2017-04-10T02:48:20.252Z,12.96
2017-04-10T02:49:00.762Z,12.92
2017-04-10T02:49:41.247Z,12.95
2017-04-10T02:50:21.730Z,12.79
2017-04-10T02:51:02.245Z,12.77
2017-04-10T02:51:42.765Z,12.79
2017-04-10T02:52:23.252Z,12.96
2017-04-10T02:53:03.755Z,13.01
2017-04-10T02:53:44.271Z,12.97
2017-04-10T02:54:24.735Z,13.01
2017-04-10T02:55:05.252Z,13.01
2017-04-10T02:55:45.751Z,12.95
2017-04-10T02:56:26.251Z,12.93
2017-04-10T02:57:06.723Z,12.96
2017-04-10T02:57:47.193Z,12.96
2017-04-10T02:58:27.713Z,12.86
2017-04-10T02:59:08.198Z,12.82
2017-04-10T02:59:48.725Z,12.82
2017-04-10T03:00:29.238Z,12.86
2017-04-10T03:01:09.699Z,12.87
2017-04-10T03:01:50.217Z,12.82
2017-04-10T03:02:30.707Z,12.85
2017-04-10T03:03:11.200Z,12.77
2017-04-10T03:03:51.690Z,12.83
2017-04-10T03:04:32.182Z,12.83
2017-04-10T03:05:12.672Z,12.79
2017-04-10T03:05:53.195Z,12.72
2017-04-10T03:06:33.703Z,12.74
2017-04-10T03:07:14.189Z,12.7
2017-04-10T03:07:54.702Z,12.65
2017-04-10T03:08:35.173Z,12.65
2017-04-10T03:09:15.692Z,12.68
2017-04-10T03:09:56.211Z,12.62
2017-04-10T03:10:36.670Z,12.64
2017-04-10T03:11:17.183Z,12.71
2017-04-10T03:11:57.726Z,12.59
2017-04-10T03:12:38.191Z,12.56
2017-04-10T03:13:18.671Z,12.59
2017-04-10T03:13:59.188Z,12.53
2017-04-10T03:14:39.692Z,12.62
2017-04-10T03:15:20.179Z,12.57
2017-04-10T03:16:00.676Z,12.68
2017-04-10T03:16:41.207Z,12.67
2017-04-10T03:17:21.667Z,12.71
2017-04-10T03:18:02.121Z,12.77
2017-04-10T03:18:42.662Z,12.77
2017-04-10T03:19:23.134Z,12.72
2017-04-10T03:20:03.695Z,12.75
2017-04-10T03:20:44.127Z,12.74
2017-04-10T03:21:24.646Z,12.86
2017-04-10T03:22:05.136Z,12.82
2017-04-10T03:22:45.632Z,12.82
2017-04-10T03:23:26.151Z,12.74
2017-04-10T03:24:06.603Z,12.72
2017-04-10T03:24:47.110Z,12.71
2017-04-10T03:25:27.629Z,12.71
2017-04-10T03:26:08.090Z,12.74
2017-04-10T03:26:48.637Z,12.79
2017-04-10T03:27:29.059Z,12.72
2017-04-10T03:28:09.578Z,12.86
2017-04-10T03:28:50.087Z,12.79
2017-04-10T03:29:30.583Z,12.85
2017-04-10T03:30:11.045Z,12.83
2017-04-10T03:30:51.542Z,12.87
2017-04-10T03:31:32.040Z,12.79
2017-04-10T03:32:12.558Z,12.79
2017-04-10T03:32:53.051Z,12.82
2017-04-10T03:33:33.550Z,12.83
2017-04-10T03:34:14.073Z,12.86
2017-04-10T03:34:54.519Z,12.86
2017-04-10T03:35:35.021Z,12.83
2017-04-10T03:36:15.531Z,12.79
2017-04-10T03:36:56.017Z,12.82
2017-04-10T03:37:36.533Z,12.67
2017-04-10T03:38:17.031Z,12.7
2017-04-10T03:38:57.556Z,12.67
2017-04-10T03:39:38.036Z,12.62
2017-04-10T03:40:18.506Z,12.57
2017-04-10T03:40:59.019Z,12.65
2017-04-10T03:41:39.505Z,12.57
2017-04-10T03:42:20.030Z,12.57
2017-04-10T03:43:00.478Z,12.59
2017-04-10T03:43:40.963Z,12.65
2017-04-10T03:44:21.452Z,12.71
2017-04-10T03:45:01.942Z,12.62
2017-04-10T03:45:42.458Z,12.65
2017-04-10T03:46:22.928Z,12.67
2017-04-10T03:47:03.400Z,12.65
2017-04-10T03:47:43.928Z,12.72
2017-04-10T03:48:24.396Z,12.7
2017-04-10T03:49:04.957Z,12.72
2017-04-10T03:49:45.401Z,12.7
2017-04-10T03:50:25.904Z,12.7
2017-04-10T03:51:06.412Z,12.68
2017-04-10T03:51:46.928Z,12.71
2017-04-10T03:52:27.398Z,12.67
2017-04-10T03:53:07.930Z,12.67
2017-04-10T03:53:48.402Z,12.64
2017-04-10T03:54:28.909Z,12.65
2017-04-10T03:55:09.399Z,12.67
2017-04-10T03:55:49.912Z,12.68
2017-04-10T03:56:30.373Z,12.62
2017-04-10T03:57:10.859Z,12.65
2017-04-10T03:57:51.363Z,12.7
2017-04-10T03:58:31.880Z,12.71
2017-04-10T03:59:12.537Z,12.67
2017-04-10T03:59:53.039Z,12.65
2017-04-10T04:00:33.548Z,12.59
2017-04-10T04:01:14.051Z,12.6
2017-04-10T04:01:54.567Z,12.64
2017-04-10T04:02:35.094Z,12.68
2017-04-10T04:03:15.550Z,12.62
2017-04-10T04:03:56.083Z,12.71
2017-04-10T04:04:36.564Z,12.74
2017-04-10T04:05:17.017Z,12.7
2017-04-10T04:05:57.564Z,12.59
2017-04-10T04:06:38.037Z,12.62
2017-04-10T04:07:18.540Z,12.64
2017-04-10T04:07:59.067Z,12.59
2017-04-10T04:08:39.560Z,12.6
2017-04-10T04:09:20.058Z,12.54
2017-04-10T04:10:00.580Z,12.67
2017-04-10T04:10:41.123Z,12.64
2017-04-10T04:11:21.610Z,12.72
2017-04-10T04:12:02.115Z,12.71
2017-04-10T04:12:42.625Z,12.67
2017-04-10T04:13:23.087Z,12.54
2017-04-10T04:14:03.597Z,12.6
2017-04-10T04:14:44.073Z,12.64
2017-04-10T04:15:24.584Z,12.67
2017-04-10T04:16:05.059Z,12.7
2017-04-10T04:16:45.558Z,12.68
2017-04-10T04:17:26.074Z,12.67
2017-04-10T04:18:06.532Z,12.65
2017-04-10T04:18:47.038Z,12.67
2017-04-10T04:19:27.521Z,12.67
2017-04-10T04:20:08.040Z,12.7
2017-04-10T04:20:48.543Z,12.65
2017-04-10T04:21:29.030Z,12.62
2017-04-10T04:22:09.555Z,12.71
2017-04-10T04:22:50.037Z,12.75
2017-04-10T04:23:30.552Z,12.64
2017-04-10T04:24:11.065Z,12.53
2017-04-10T04:24:51.520Z,12.6
2017-04-10T04:25:32.011Z,12.52
2017-04-10T04:26:12.490Z,12.64
2017-04-10T04:26:52.984Z,12.52
2017-04-10T04:27:33.476Z,12.56
2017-04-10T04:28:13.969Z,12.59
2017-04-10T04:28:54.481Z,12.62
2017-04-10T04:29:34.966Z,12.6
2017-04-10T04:30:15.460Z,12.62
2017-04-10T04:30:55.964Z,12.57
2017-04-10T04:31:36.456Z,12.64
2017-04-10T04:32:16.944Z,12.53
2017-04-10T04:32:57.466Z,12.56
2017-04-10T04:33:37.951Z,12.6
2017-04-10T04:34:18.475Z,12.56
2017-04-10T04:34:58.944Z,12.53
2017-04-10T04:35:39.452Z,12.62
2017-04-10T04:36:19.970Z,12.52
2017-04-10T04:37:00.446Z,12.49
2017-04-10T04:37:40.940Z,12.54
2017-04-10T04:38:21.435Z,12.53
2017-04-10T04:39:01.957Z,12.56
2017-04-10T04:39:42.456Z,12.56
2017-04-10T04:40:22.941Z,12.49
2017-04-10T04:41:03.450Z,12.52
2017-04-10T04:41:43.953Z,12.5
2017-04-10T04:42:24.435Z,12.54
2017-04-10T04:43:04.946Z,12.56
2017-04-10T04:43:45.446Z,12.53
2017-04-10T04:44:25.935Z,12.46
2017-04-10T04:45:06.432Z,12.45
2017-04-10T04:45:46.969Z,12.42
2017-04-10T04:46:27.446Z,12.46
2017-04-10T04:47:07.919Z,12.37
2017-04-10T04:47:48.430Z,12.35
2017-04-10T04:48:28.921Z,12.49
2017-04-10T04:49:09.394Z,12.52
2017-04-10T04:52:30.051Z,12.39
2017-04-10T04:53:10.541Z,12.42
2017-04-10T04:53:51.030Z,12.41
2017-04-10T04:54:31.513Z,12.5
2017-04-10T04:55:12.019Z,12.45
2017-04-10T04:55:52.507Z,12.38
2017-04-10T04:56:33.026Z,12.37
2017-04-10T04:57:13.493Z,12.39
2017-04-10T04:57:54.020Z,12.39
2017-04-10T04:58:34.517Z,12.37
2017-04-10T04:59:14.971Z,12.45
2017-04-10T04:59:55.563Z,12.39
2017-04-10T05:00:36.035Z,12.38
2017-04-10T05:01:16.538Z,12.42
2017-04-10T05:01:56.958Z,12.49
2017-04-10T05:02:37.464Z,12.5
2017-04-10T05:03:17.938Z,12.49
2017-04-10T05:03:58.470Z,12.54
2017-04-10T05:04:38.920Z,12.59
2017-04-10T05:05:19.412Z,12.56
2017-04-10T05:05:59.918Z,12.52
2017-04-10T05:06:40.403Z,12.6
2017-04-10T05:07:20.886Z,12.64
2017-04-10T05:08:01.372Z,12.72
2017-04-10T05:08:41.866Z,12.67
2017-04-10T05:09:22.383Z,12.74
2017-04-10T05:10:02.880Z,12.68
2017-04-10T05:10:43.406Z,12.56
2017-04-10T05:11:23.868Z,12.67
2017-04-10T05:12:04.347Z,12.74
2017-04-10T05:12:44.854Z,12.72
2017-04-10T05:13:25.337Z,12.6
2017-04-10T05:14:05.856Z,12.62
2017-04-10T05:14:46.321Z,12.64
2017-04-10T05:15:26.819Z,12.59
2017-04-10T05:16:07.317Z,12.65
2017-04-10T05:16:47.820Z,12.68
2017-04-10T05:17:28.308Z,12.7
2017-04-10T05:18:08.800Z,12.65
2017-04-10T05:18:49.336Z,12.54
2017-04-10T05:19:29.841Z,12.6
2017-04-10T05:20:10.316Z,12.7
2017-04-10T05:20:50.821Z,12.7
2017-04-10T05:21:31.322Z,12.74
2017-04-10T05:22:11.811Z,12.79
2017-04-10T05:22:52.299Z,12.75
2017-04-10T05:23:32.812Z,12.89
2017-04-10T05:24:13.340Z,12.83
2017-04-10T05:24:53.816Z,12.87
2017-04-10T05:25:34.305Z,12.83
2017-04-10T05:26:14.837Z,13.01
2017-04-10T05:26:55.338Z,13.07
2017-04-10T05:27:35.842Z,13.08
2017-04-10T05:28:16.381Z,13
2017-04-10T05:28:56.836Z,13.14
2017-04-10T05:29:37.344Z,13.3
2017-04-10T05:30:17.844Z,13.49
2017-04-10T05:30:58.346Z,13.52
2017-04-10T05:31:38.845Z,13.62
2017-04-10T05:32:19.332Z,13.69
2017-04-10T05:32:59.982Z,13.62
2017-04-10T05:33:40.469Z,13.78
2017-04-10T05:34:20.952Z,13.84
2017-04-10T05:35:01.521Z,13.88
2017-04-10T05:35:41.981Z,13.87
2017-04-10T05:36:22.480Z,13.89
2017-04-10T05:37:02.979Z,14.03
2017-04-10T05:37:43.493Z,13.91
2017-04-10T05:38:23.942Z,13.95
2017-04-10T05:39:04.409Z,13.96
2017-04-10T05:39:44.952Z,13.99
2017-04-10T05:40:25.481Z,13.96
2017-04-10T05:41:05.887Z,14.02
2017-04-10T05:41:46.383Z,14.06
2017-04-10T05:42:26.894Z,14.12
2017-04-10T05:43:07.444Z,14.07
2017-04-10T05:43:47.986Z,13.97
2017-04-10T05:44:28.589Z,14.03
2017-04-10T05:45:09.021Z,14.06
2017-04-10T05:45:49.470Z,14
2017-04-10T05:46:29.988Z,14.04
2017-04-10T05:47:10.437Z,13.97
2017-04-10T05:47:50.917Z,13.88
2017-04-10T05:48:31.437Z,13.85
2017-04-10T05:49:11.930Z,13.85
2017-04-10T05:49:52.419Z,13.88
2017-04-10T05:50:32.969Z,13.88
2017-04-10T05:51:13.457Z,13.85
2017-04-10T05:51:53.944Z,13.88
2017-04-10T05:52:34.455Z,13.87
2017-04-10T05:53:14.962Z,13.95
2017-04-10T05:53:55.479Z,14.03
2017-04-10T05:54:35.956Z,14.06
2017-04-10T05:55:16.449Z,13.97
2017-04-10T05:55:56.956Z,13.89
2017-04-10T05:56:37.454Z,13.82
2017-04-10T05:58:15.343Z,13.89
2017-04-10T05:58:55.882Z,13.89
2017-04-10T05:59:36.371Z,13.84
2017-04-10T06:00:16.932Z,13.88
2017-04-10T06:02:10.043Z,14.09
2017-04-10T06:02:50.506Z,14.07
2017-04-10T06:03:31.037Z,13.95
2017-04-10T06:04:11.534Z,13.95
2017-04-10T06:04:52.035Z,14.04
2017-04-10T06:05:32.611Z,14.04
2017-04-10T06:06:13.061Z,14.06
2017-04-10T06:06:53.592Z,14.17
2017-04-10T06:07:34.044Z,14.24
2017-04-10T06:08:14.549Z,14.15
2017-04-10T06:08:55.101Z,14.17
2017-04-10T06:09:35.613Z,14.15
2017-04-10T06:10:16.098Z,14.15
2017-04-10T06:10:56.592Z,14.14
2017-04-10T06:11:37.311Z,14.27
2017-04-10T06:12:17.813Z,14.25
2017-04-10T06:12:58.295Z,14.33
2017-04-10T06:13:38.786Z,14.36
2017-04-10T06:14:19.304Z,14.4
2017-04-10T06:14:59.820Z,14.37
2017-04-10T06:15:40.312Z,14.54
2017-04-10T06:16:20.762Z,14.57
2017-04-10T06:17:01.300Z,14.64
2017-04-10T06:17:41.817Z,14.62
2017-04-10T06:18:22.307Z,14.8
2017-04-10T06:19:02.814Z,14.95
2017-04-10T06:19:43.624Z,14.86
2017-04-10T06:20:24.041Z,14.92
2017-04-10T06:21:05.221Z,14.98
2017-04-10T06:21:45.132Z,15.1
2017-04-10T06:22:25.769Z,15.17
2017-04-10T06:23:06.690Z,15.21
2017-04-10T06:23:47.621Z,15.29
2017-04-10T06:24:28.151Z,15.34
2017-04-10T06:25:08.696Z,15.43
2017-04-10T06:27:22.903Z,15.44
2017-04-10T06:28:03.600Z,15.38
2017-04-10T06:28:44.067Z,15.51
2017-04-10T06:29:24.618Z,15.56
2017-04-10T06:30:05.006Z,15.71
2017-04-10T06:30:45.708Z,15.68
2017-04-10T06:31:26.084Z,15.74
2017-04-10T06:32:06.629Z,15.54
2017-04-10T06:32:47.073Z,15.54
2017-04-10T06:33:27.596Z,15.5
2017-04-10T06:34:08.018Z,15.51
2017-04-10T06:34:48.542Z,15.36
2017-04-10T06:35:29.098Z,15.36
2017-04-10T06:36:09.563Z,15.14
2017-04-10T06:36:50.080Z,15.09
2017-04-10T06:37:30.632Z,15.07
2017-04-10T06:38:11.071Z,15.03
2017-04-10T06:38:51.550Z,15.03
2017-04-10T06:39:32.069Z,15.11
2017-04-10T06:40:12.604Z,15.06
2017-04-10T06:40:53.087Z,14.99
2017-04-10T06:41:33.559Z,15.01
2017-04-10T06:42:14.022Z,15.09
2017-04-10T06:42:54.540Z,15.03
2017-04-10T06:43:35.055Z,15.03
2017-04-10T06:44:15.554Z,15.07
2017-04-10T06:44:56.036Z,15.09
2017-04-10T06:45:36.552Z,15.07
2017-04-10T06:46:17.078Z,14.94
2017-04-10T06:46:57.529Z,15.25
2017-04-10T06:47:38.031Z,15.2
2017-04-10T06:48:18.517Z,15.03
2017-04-10T06:48:59.094Z,15.02
2017-04-10T06:49:39.548Z,15.19
2017-04-10T06:50:20.070Z,15.21
2017-04-10T06:51:00.567Z,15.16
2017-04-10T06:51:41.073Z,15.17
2017-04-10T06:52:21.574Z,15.06
2017-04-10T06:53:02.069Z,15.09
2017-04-10T06:53:42.566Z,15.19
2017-04-10T06:54:23.064Z,15.31
2017-04-10T06:55:03.540Z,15.39
2017-04-10T06:55:44.084Z,15.35
2017-04-10T06:56:24.529Z,15.34
2017-04-10T06:57:05.052Z,15.49
2017-04-10T06:57:45.540Z,15.56
2017-04-10T06:58:26.058Z,15.5
2017-04-10T06:59:06.553Z,15.54
2017-04-10T06:59:47.023Z,15.64
2017-04-10T07:00:27.575Z,15.86
2017-04-10T07:01:07.997Z,15.94
2017-04-10T07:01:48.504Z,16.05
2017-04-10T07:02:28.990Z,16.15
2017-04-10T07:03:09.510Z,16.11
2017-04-10T07:03:50.010Z,16.28
2017-04-10T07:04:30.521Z,16.42
2017-04-10T07:05:11.022Z,16.48
2017-04-10T07:05:51.499Z,16.57
2017-04-10T07:06:32.007Z,16.76
2017-04-10T07:07:12.516Z,16.82
2017-04-10T07:07:52.987Z,16.88
2017-04-10T07:08:33.548Z,16.97
2017-04-10T07:09:14.035Z,16.98
2017-04-10T07:09:54.560Z,17.11
2017-04-10T07:10:35.041Z,17.22
2017-04-10T07:11:15.521Z,17.14
2017-04-10T07:11:56.026Z,17.19
2017-04-10T07:12:36.522Z,17.43
2017-04-10T07:13:17.122Z,17.41
2017-04-10T07:13:57.689Z,17.46
2017-04-10T07:14:38.257Z,17.56
2017-04-10T07:15:18.743Z,17.54
2017-04-10T07:15:59.236Z,17.56
2017-04-10T07:16:39.723Z,17.63
2017-04-10T07:17:20.250Z,17.72
2017-04-10T07:18:00.738Z,17.77
2017-04-10T07:18:41.240Z,17.79
2017-04-10T07:19:22.213Z,18.03
2017-04-10T07:20:02.716Z,18.07
2017-04-10T07:20:43.214Z,18.07
2017-04-10T07:21:23.763Z,18.12
2017-04-10T07:22:04.210Z,18.2
2017-04-10T07:22:44.737Z,18.27
2017-04-10T07:23:25.267Z,18.3
2017-04-10T07:24:05.768Z,18.25
2017-04-10T07:24:46.212Z,18.26
2017-04-10T07:25:26.680Z,18.3
2017-04-10T07:26:07.204Z,18.3
2017-04-10T07:26:47.784Z,18.3
2017-04-10T07:27:28.294Z,18.35
2017-04-10T07:28:08.980Z,18.37
2017-04-10T07:28:49.457Z,18.41
2017-04-10T07:29:29.931Z,18.45
2017-04-10T07:30:10.482Z,18.32
2017-04-10T07:30:50.925Z,18.29
2017-04-10T07:31:31.482Z,18.2
2017-04-10T07:32:11.980Z,18.25
2017-04-10T07:32:52.482Z,18.26
2017-04-10T07:33:32.973Z,18.3
2017-04-10T07:34:13.486Z,18.41
2017-04-10T07:34:53.971Z,18.33
2017-04-10T07:35:34.470Z,18.3
2017-04-10T07:36:15.024Z,18.29
2017-04-10T07:36:55.517Z,18.2
2017-04-10T07:37:36.005Z,18.25
2017-04-10T07:38:16.509Z,18.21
2017-04-10T07:38:57.013Z,18.12
2017-04-10T07:39:37.540Z,18.07
2017-04-10T07:40:18.003Z,18.08
2017-04-10T07:40:58.499Z,18.08
2017-04-10T07:41:38.983Z,18.2
2017-04-10T07:42:19.467Z,18.21
2017-04-10T07:43:00.060Z,18.08
2017-04-10T07:43:40.548Z,18.14
2017-04-10T07:44:21.144Z,18.27
2017-04-10T07:45:01.661Z,18.25
2017-04-10T07:45:42.135Z,18.3
2017-04-10T07:46:22.649Z,18.27
2017-04-10T07:47:03.241Z,18.29
2017-04-10T07:49:16.581Z,18.2
2017-04-10T07:49:57.031Z,18.47
2017-04-10T07:50:37.546Z,18.44
2017-04-10T07:51:18.046Z,18.62
2017-04-10T07:51:58.569Z,18.6
2017-04-10T07:52:39.048Z,18.62
2017-04-10T07:53:19.646Z,18.6
2017-04-10T07:54:00.180Z,18.63
2017-04-10T07:54:40.712Z,18.66
2017-04-10T07:55:21.140Z,18.67
2017-04-10T07:56:01.708Z,18.84
2017-04-10T07:56:42.201Z,18.85
2017-04-10T07:57:22.720Z,18.81
2017-04-10T07:58:03.196Z,18.85
2017-04-10T07:58:43.715Z,18.85
2017-04-10T07:59:24.222Z,18.9
2017-04-10T08:00:04.715Z,18.85
2017-04-10T08:00:45.197Z,18.99
2017-04-10T08:01:25.716Z,19.06
2017-04-10T08:02:06.225Z,19.08
2017-04-10T08:02:46.721Z,18.98
2017-04-10T08:03:27.285Z,18.99
2017-04-10T08:04:07.767Z,18.99
2017-04-10T08:04:48.193Z,18.95
2017-04-10T08:05:28.763Z,18.95
2017-04-10T08:06:09.237Z,18.99
2017-04-10T08:06:49.826Z,18.95
2017-04-10T08:07:30.291Z,18.99
2017-04-10T08:08:10.775Z,19.02
2017-04-10T08:08:51.269Z,19.08
2017-04-10T08:09:31.790Z,19.06
2017-04-10T08:10:12.293Z,19.11
2017-04-10T08:10:52.869Z,19.06
2017-04-10T08:11:33.372Z,19.08
2017-04-10T08:12:13.925Z,19.1
2017-04-10T08:12:54.333Z,18.99
2017-04-10T08:13:34.781Z,19.04
2017-04-10T08:14:15.304Z,19.13
2017-04-10T08:14:55.944Z,19.26
2017-04-10T08:15:36.390Z,19.21
2017-04-10T08:16:16.866Z,19.19
2017-04-10T08:16:57.404Z,19.19
2017-04-10T08:17:37.966Z,19.26
2017-04-10T08:18:18.448Z,19.19
2017-04-10T08:18:58.963Z,19.23
2017-04-10T08:19:39.382Z,19.26
2017-04-10T08:20:19.921Z,19.23
2017-04-10T08:21:00.405Z,19.32
2017-04-10T08:21:40.878Z,19.23
2017-04-10T08:22:21.411Z,19.16
2017-04-10T08:23:01.837Z,19.11
2017-04-10T08:23:42.375Z,19.04
2017-04-10T08:24:22.883Z,19.07
2017-04-10T08:25:03.420Z,19.06
2017-04-10T08:25:43.983Z,19.16
2017-04-10T08:26:24.386Z,19.06
2017-04-10T08:27:04.876Z,19.07
2017-04-10T08:27:45.440Z,19.07
2017-04-10T08:28:25.962Z,19.04
2017-04-10T08:29:06.521Z,19.11
2017-04-10T08:29:47.082Z,19.31
2017-04-10T08:30:27.672Z,19.29
2017-04-10T08:31:08.063Z,19.32
2017-04-10T08:31:48.610Z,19.32
2017-04-10T08:32:29.208Z,19.28
2017-04-10T08:33:09.685Z,19.36
2017-04-10T08:33:50.171Z,19.31
2017-04-10T08:34:30.706Z,19.28
2017-04-10T08:35:11.187Z,19.14
2017-04-10T08:35:51.696Z,19.18
2017-04-10T08:36:32.183Z,19.19
2017-04-10T08:37:12.699Z,19.21
2017-04-10T08:37:53.180Z,19.22
2017-04-10T08:38:33.720Z,19.39
2017-04-10T08:39:14.205Z,19.4
2017-04-10T08:39:54.661Z,19.55
2017-04-10T08:40:35.135Z,19.63
2017-04-10T08:41:15.691Z,19.63
2017-04-10T08:41:56.215Z,19.63
2017-04-10T08:42:36.688Z,19.69
2017-04-10T08:43:17.143Z,19.74
2017-04-10T08:43:57.637Z,19.71
2017-04-10T08:44:38.146Z,19.78
2017-04-10T08:45:18.676Z,19.86
2017-04-10T08:45:59.239Z,19.81
2017-04-10T08:46:39.725Z,19.91
2017-04-10T08:47:20.250Z,19.92
2017-04-10T08:48:00.717Z,19.96
2017-04-10T08:48:41.251Z,20.02
2017-04-10T08:49:21.766Z,19.91
2017-04-10T08:50:02.259Z,20.05
2017-04-10T08:50:42.794Z,19.94
2017-04-10T08:51:23.282Z,19.95